Latest Weather Observations for Wynyard

IDT60801

Issued at 8:31 pm EST Thursday 25 April 2024 (issued every 10 minutes, with the page automatically refreshed every 10 minutes)

About weather observations | Map of weather stations | Latest weather observations for TAS | Other Formats
Station Details ID: 091107 Name: WYNYARD AIRPORT Lat: -41.00 Lon: 145.73 Height: 12.0 m
Data from the previous 72 hours. | See also: Recent months at Wynyard
Date/Time
EST
Temp
°C
App
Temp
°C
Dew
Point
°C
Rel
Hum
%
Delta-T
°C
Wind Press
QNH
hPa
Press
MSL
hPa
Rain since
9am
mm
Dir  Spd
km/h
Gust
km/h
Spd
kts
Gust
kts
25/08:30pm 7.2 4.0 4.9 85 1.0 W 11 13 6 7 1021.7 1021.7 0.0
25/08:00pm 8.9 5.4 5.6 80 1.5 W 13 15 7 8 1021.6 1021.6 0.0
25/07:30pm 8.6 5.8 5.0 78 1.6 W 9 11 5 6 1021.4 1021.4 0.0
25/07:00pm 10.5 7.5 6.1 74 2.0 WNW 11 17 6 9 1021.2 1021.2 0.0
25/06:30pm 10.5 7.5 5.9 73 2.1 W 11 15 6 8 1020.9 1020.9 0.0
25/06:00pm 11.6 7.5 6.1 69 2.6 SW 17 24 9 13 1020.7 1020.7 0.0
25/05:30pm 12.4 7.7 6.2 66 2.9 SW 20 32 11 17 1020.5 1020.5 0.0
25/05:00pm 12.7 8.0 6.1 64 3.1 WSW 20 30 11 16 1020.0 1020.0 0.0
25/04:30pm 13.4 7.2 6.3 62 3.4 SW 28 37 15 20 1019.8 1019.8 0.0
25/04:00pm 13.5 6.9 5.9 60 3.6 SW 30 41 16 22 1019.7 1019.7 0.0
25/03:30pm 13.9 8.0 6.0 59 3.8 SW 26 43 14 23 1019.6 1019.6 0.0
25/03:00pm 14.0 10.2 5.9 58 3.8 SSW 15 26 8 14 1019.5 1019.5 0.0
25/02:30pm 14.0 9.7 5.4 56 4.0 WSW 17 24 9 13 1019.1 1019.1 0.0
25/02:00pm 13.7 8.6 5.8 59 3.7 SW 22 33 12 18 1018.9 1018.9 0.0
25/01:30pm 14.4 7.3 5.5 55 4.2 SW 32 57 17 31 1018.2 1018.2 0.0
25/01:00pm 14.3 6.7 5.9 57 4.0 SW 35 56 19 30 1018.4 1018.4 0.0
25/12:46pm 14.7 6.2 5.2 53 4.5 WSW 39 57 21 31 1018.5 1018.5 0.0
25/12:30pm 15.1 7.1 5.9 54 4.4 SW 37 50 20 27 1018.8 1018.8 0.0
25/12:00pm 14.7 5.3 5.5 54 4.3 SW 44 59 24 32 1019.1 1019.1 0.0
25/11:32am 14.1 4.8 5.2 55 4.2 SW 43 61 23 33 1019.6 1019.6 0.0
25/11:30am 14.3 4.9 5.4 55 4.2 SW 44 61 24 33 1019.6 1019.6 0.0
25/11:09am 14.4 6.2 6.5 59 3.8 SW 39 57 21 31 1019.4 1019.4 0.0
25/11:00am 14.1 6.3 6.7 61 3.6 SW 37 52 20 28 1019.4 1019.4 0.0
25/10:30am 12.8 5.7 6.4 65 3.0 SW 33 44 18 24 1019.2 1019.2 0.0
25/10:00am 12.1 5.1 6.8 70 2.5 SW 33 43 18 23 1018.9 1018.9 0.0
25/09:30am 11.5 5.2 7.2 75 2.1 SW 30 44 16 24 1018.8 1018.8 0.0
25/09:00am 11.1 4.3 7.0 76 1.9 SW 32 43 17 23 1018.7 1018.7 0.2
25/08:30am 10.7 4.7 7.0 78 1.8 WSW 28 37 15 20 1018.4 1018.4 0.2
25/08:00am 10.8 3.9 6.6 75 2.0 SW 32 44 17 24 1018.1 1018.1 0.2
25/07:30am 10.4 4.3 6.5 77 1.8 SW 28 41 15 22 1017.8 1017.8 0.2
25/07:00am 10.3 4.2 6.6 78 1.7 SW 28 35 15 19 1017.6 1017.6 0.2
25/06:30am 9.9 3.9 7.2 83 1.3 WSW 28 37 15 20 1017.0 1017.0 0.2
25/06:00am 10.2 4.1 6.7 79 1.6 WSW 28 41 15 22 1016.8 1016.9 0.2
25/05:30am 10.1 4.3 6.1 76 1.9 WSW 26 33 14 18 1016.5 1016.6 0.2
25/05:00am 10.2 4.3 5.6 73 2.1 WSW 26 33 14 18 1016.3 1016.3 0.2
25/04:30am 9.8 4.7 6.2 78 1.7 WSW 22 30 12 16 1016.4 1016.5 0.2
25/04:00am 9.1 4.7 6.4 83 1.2 WNW 19 24 10 13 1016.6 1016.7 0.2
25/03:30am 9.0 4.9 6.1 82 1.3 W 17 28 9 15 1016.7 1016.8 0.2
25/03:00am 8.7 4.6 6.0 83 1.2 WNW 17 20 9 11 1016.7 1016.8 0.2
25/02:30am 9.1 4.9 5.8 80 1.5 W 17 20 9 11 1017.1 1017.1 0.2
25/02:00am 9.3 5.2 6.0 80 1.5 W 17 22 9 12 1017.3 1017.3 0.2
25/01:30am 9.8 5.3 6.9 82 1.4 W 20 26 11 14 1017.5 1017.5 0.2
25/01:00am 8.5 5.0 7.0 90 0.7 W 15 19 8 10 1017.3 1017.3 0.2
25/12:30am 8.7 5.3 7.5 92 0.6 W 15 19 8 10 1017.6 1017.6 0.2
25/12:00am 9.4 5.7 8.0 91 0.7 WSW 17 20 9 11 1017.5 1017.5 0.2
 
Date/Time
EST
Temp
°C
App
Temp
°C
Dew
Point
°C
Rel
Hum
%
Delta-T
°C
Wind Press
QNH
hPa
Press
MSL
hPa
Rain since
9am
mm
Dir  Spd
km/h
Gust
km/h
Spd
kts
Gust
kts
24/11:30pm 9.4 5.7 7.8 90 0.8 W 17 20 9 11 1017.4 1017.4 0.2
24/11:00pm 9.8 6.0 7.6 86 1.0 W 17 22 9 12 1017.4 1017.4 0.2
24/10:30pm 10.3 5.7 8.1 86 1.1 W 22 28 12 15 1017.5 1017.5 0.2
24/10:00pm 10.1 6.3 7.7 85 1.1 W 17 22 9 12 1017.6 1017.6 0.2
24/09:30pm 10.4 6.2 7.6 83 1.3 W 19 24 10 13 1017.4 1017.4 0.2
24/09:00pm 10.6 6.4 8.2 85 1.2 WSW 20 28 11 15 1017.3 1017.3 0.2
24/08:30pm 10.3 6.1 8.1 86 1.1 WSW 20 28 11 15 1017.1 1017.1 0.2
24/08:00pm 10.3 5.7 8.2 87 1.0 WSW 22 28 12 15 1016.7 1016.8 0.2
24/07:30pm 10.7 5.8 8.3 85 1.2 W 24 32 13 17 1016.7 1016.8 0.2
24/07:00pm 11.0 6.5 8.6 85 1.2 W 22 30 12 16 1016.6 1016.7 0.2
24/06:30pm 11.0 7.1 9.6 91 0.7 WNW 20 26 11 14 1016.7 1016.8 0.2
24/06:00pm 10.9 7.5 9.3 90 0.8 W 17 22 9 12 1016.8 1016.9 0.0
24/05:53pm 10.9 7.0 9.3 90 0.8 W 20 24 11 13 1016.7 1016.8 0.0
24/05:39pm 11.3 6.9 8.9 85 1.2 WNW 22 28 12 15 1016.7 1016.8 0.0
24/05:30pm 11.9 7.7 8.4 79 1.7 WNW 20 32 11 17 1016.7 1016.8 0.0
24/05:00pm 12.0 7.9 7.7 75 2.1 W 19 28 10 15 1016.8 1016.9 0.0
24/04:30pm 12.3 7.2 7.6 73 2.3 W 24 32 13 17 1017.1 1017.1 0.0
24/04:00pm 12.9 7.1 8.0 72 2.4 W 28 37 15 20 1017.1 1017.1 0.0
24/03:41pm 13.1 5.8 7.3 68 2.8 WSW 35 54 19 29 1017.2 1017.2 0.0
24/03:30pm 13.6 6.0 7.4 66 3.0 WSW 37 54 20 29 1017.1 1017.1 0.0
24/03:21pm 13.4 6.6 7.0 65 3.1 WSW 32 54 17 29 1016.8 1016.9 0.0
24/03:00pm 14.0 7.5 8.0 67 3.0 SW 32 43 17 23 1016.8 1016.9 0.0
24/02:31pm 14.1 6.3 6.5 60 3.7 WSW 37 61 20 33 1016.3 1016.3 0.0
24/02:30pm 14.2 6.8 6.6 60 3.7 SW 35 50 19 27 1016.4 1016.5 0.0
24/02:04pm 14.8 7.9 6.4 57 4.1 SW 32 50 17 27 1016.5 1016.6 0.0
24/02:00pm 14.5 7.0 6.1 57 4.0 SW 35 50 19 27 1016.4 1016.5 0.0
24/01:30pm 14.2 6.7 6.1 58 3.9 WSW 35 59 19 32 1016.2 1016.2 0.0
24/01:07pm 14.2 5.1 6.1 58 3.9 WSW 43 61 23 33 1016.1 1016.1 0.0
24/01:00pm 14.6 6.3 5.9 56 4.1 SW 39 56 21 30 1016.0 1016.0 0.0
24/12:40pm 15.0 7.5 6.3 56 4.2 WSW 35 54 19 29 1016.1 1016.1 0.0
24/12:30pm 14.6 6.5 5.4 54 4.3 WSW 37 50 20 27 1016.2 1016.2 0.0
24/12:00pm 14.1 6.2 4.4 52 4.5 SW 35 54 19 29 1016.6 1016.7 0.0
24/11:44am 12.9 5.0 4.6 57 3.8 SW 35 54 19 29 1016.6 1016.7 0.0
24/11:30am 13.4 5.5 4.6 55 4.0 WSW 35 52 19 28 1016.7 1016.8 0.0
24/11:05am 13.2 6.1 5.4 59 3.6 SW 32 50 17 27 1016.7 1016.8 0.0
24/11:00am 13.0 5.9 5.4 60 3.5 SW 32 48 17 26 1016.6 1016.7 0.0
24/10:30am 12.6 5.0 3.8 55 4.0 SW 33 50 18 27 1016.6 1016.7 0.0
24/10:00am 12.0 5.6 5.0 62 3.2 SW 28 46 15 25 1016.3 1016.3 0.0
24/09:30am 11.9 4.7 5.1 63 3.1 WSW 32 50 17 27 1016.1 1016.1 0.0
24/09:26am 11.5 4.9 4.0 60 3.4 WSW 28 50 15 27 1016.0 1016.0 0.0
24/09:00am 10.7 5.7 4.4 65 2.8 WSW 20 32 11 17 1016.1 1016.1 2.2
24/08:30am 10.7 5.7 3.7 62 3.1 WSW 19 32 10 17 1015.6 1015.6 2.2
24/08:00am 10.1 4.9 3.4 63 2.9 WSW 20 28 11 15 1015.1 1015.1 2.2
24/07:30am 9.9 4.2 3.0 62 3.0 SW 22 35 12 19 1014.4 1014.4 2.2
24/07:00am 9.8 4.7 3.1 63 2.9 WSW 19 28 10 15 1013.6 1013.6 2.2
24/06:30am 9.4 3.8 3.4 66 2.6 WSW 22 43 12 23 1012.8 1012.8 2.2
24/06:00am 9.7 3.7 3.4 65 2.7 SW 24 39 13 21 1012.0 1012.0 2.2
24/05:30am 10.0 2.5 3.3 63 2.9 SW 32 52 17 28 1011.1 1011.1 2.2
24/05:00am 10.3 2.3 4.0 65 2.8 SW 35 63 19 34 1010.8 1010.8 2.2
24/04:30am 10.3 2.9 4.0 65 2.8 SW 32 50 17 27 1009.9 1009.9 2.2
24/04:24am 10.3 2.9 4.0 65 2.8 SSW 32 50 17 27 1009.8 1009.8 2.2
24/04:00am 10.6 4.6 3.6 62 3.1 SSW 24 37 13 20 1009.5 1009.5 2.2
24/03:30am 10.8 3.5 5.6 70 2.4 SSW 33 57 18 31 1009.0 1009.0 2.2
24/03:05am 11.0 3.9 6.6 74 2.1 SW 33 59 18 32 1009.1 1009.1 2.2
24/03:00am 10.8 3.8 6.7 76 1.9 SW 33 48 18 26 1009.2 1009.2 2.2
24/02:55am 11.1 4.6 6.6 74 2.1 SW 30 48 16 26 1009.1 1009.1 2.2
24/02:30am 10.9 5.2 6.8 76 1.9 SSW 26 33 14 18 1007.2 1007.2 2.2
24/02:00am 11.2 7.3 7.3 77 1.9 SSW 17 28 9 15 1007.3 1007.3 2.2
24/01:30am 11.8 6.9 8.6 81 1.6 SW 24 35 13 19 1007.8 1007.8 2.2
24/01:00am 12.2 10.3 11.9 98 0.2 WSW 13 17 7 9 1007.7 1007.7 2.2
24/12:30am 12.6 12.0 12.3 98 0.2 W 7 7 4 4 1007.7 1007.7 2.0
24/12:00am 12.9 11.9 12.3 96 0.3 WSW 9 13 5 7 1007.7 1007.7 1.4
 
Date/Time
EST
Temp
°C
App
Temp
°C
Dew
Point
°C
Rel
Hum
%
Delta-T
°C
Wind Press
QNH
hPa
Press
MSL
hPa
Rain since
9am
mm
Dir  Spd
km/h
Gust
km/h
Spd
kts
Gust
kts
23/11:30pm 13.2 11.8 12.3 94 0.5 SW 11 15 6 8 1007.9 1007.9 1.2
23/11:00pm 13.4 11.2 12.1 92 0.7 WSW 15 19 8 10 1008.6 1008.6 0.8
23/10:30pm 13.1 11.9 12.8 98 0.2 WSW 11 13 6 7 1009.2 1009.2 0.4
23/10:00pm 13.7 13.4 13.2 97 0.3 WNW 7 9 4 5 1009.2 1009.2 0.4
23/09:30pm 13.6 13.1 12.8 95 0.4 S 7 9 4 5 1009.3 1009.3 0.4
23/09:00pm 13.9 12.4 13.0 94 0.5 SW 13 20 7 11 1010.1 1010.1 0.4
23/08:30pm 13.8 11.9 13.0 95 0.4 WNW 15 32 8 17 1010.6 1010.6 0.0
23/08:00pm 13.3 13.9 12.0 92 0.7 CALM 0 0 0 0 1008.7 1008.7 0.0
23/07:30pm 13.6 12.5 13.0 96 0.3 S 11 13 6 7 1009.5 1009.5 0.0
23/07:00pm 13.4 14.1 12.3 93 0.6 CALM 0 0 0 0 1010.0 1010.0 0.0
23/06:30pm 13.5 12.4 12.1 91 0.8 SSE 9 11 5 6 1009.9 1009.9 0.0
23/06:00pm 14.0 13.3 11.9 87 1.1 SE 7 9 4 5 1010.3 1010.3 0.0
23/05:30pm 15.7 16.4 12.3 80 1.9 CALM 0 0 0 0 1010.7 1010.7 0.0
23/05:00pm 17.3 18.2 12.8 75 2.5 CALM 0 6 0 3 1011.0 1011.0 0.0
23/04:30pm 17.7 17.3 13.0 74 2.6 N 7 13 4 7 1011.3 1011.3 0.0
23/04:00pm 17.7 16.6 13.2 75 2.5 NE 11 15 6 8 1011.6 1011.6 0.0
23/03:30pm 18.6 18.1 13.7 73 2.8 NE 9 13 5 7 1011.9 1011.9 0.0
23/03:00pm 18.5 17.9 13.6 73 2.8 NE 9 17 5 9 1012.4 1012.4 0.0
23/02:30pm 17.8 16.6 14.1 79 2.1 ENE 13 17 7 9 1012.8 1012.8 0.0
23/02:00pm 17.6 15.9 13.7 78 2.2 E 15 20 8 11 1013.1 1013.1 0.0
23/01:30pm 17.3 15.7 13.8 80 2.0 E 15 20 8 11 1013.7 1013.7 0.0
23/01:00pm 17.5 16.2 13.6 78 2.2 E 13 19 7 10 1014.3 1014.3 0.0
23/12:30pm 17.6 16.3 13.7 78 2.2 ENE 13 19 7 10 1015.1 1015.1 0.0
23/12:00pm 17.0 15.4 12.9 77 2.3 ENE 13 17 7 9 1015.8 1015.8 0.0
23/11:30am 17.3 15.8 13.0 76 2.4 ENE 13 17 7 9 1016.4 1016.5 0.0
23/11:00am 16.7 15.6 13.0 79 2.1 E 11 17 6 9 1016.8 1016.9 0.0
23/10:30am 16.0 14.4 12.7 81 1.8 E 13 17 7 9 1017.1 1017.1 0.0
23/10:00am 15.8 14.8 13.3 85 1.4 E 11 15 6 8 1017.5 1017.5 0.0
23/09:30am 13.8 13.7 12.2 90 0.9 NW 4 7 2 4 1017.9 1017.9 0.0
23/09:28am 13.6 13.5 12.0 90 0.9 NW 4 7 2 4 1017.9 1017.9 0.0
23/09:00am 10.9 9.4 10.4 97 0.3 WNW 9 11 5 6 1018.2 1018.2 0.0
23/08:30am 8.9 6.9 8.8 99 0.0 WNW 9 13 5 7 1018.5 1018.5 0.0
23/08:00am 7.7 5.1 7.6 99 0.0 WNW 11 11 6 6 1018.6 1018.6 0.0
23/07:30am 7.1 4.3 7.0 99 0.0 WNW 11 11 6 6 1018.8 1018.8 0.0
23/07:00am 6.0 3.4 5.9 99 0.0 WNW 9 13 5 7 1018.7 1018.7 0.0
23/06:30am 6.2 3.2 6.1 99 0.0 WNW 11 13 6 7 1018.7 1018.7 0.0
23/06:00am 5.5 2.4 5.4 99 0.0 WNW 11 13 6 7 1018.5 1018.5 0.0
23/05:30am 5.2 2.4 5.1 99 0.0 WNW 9 13 5 7 1018.6 1018.6 0.0
23/05:00am 6.4 3.5 6.3 99 0.0 WNW 11 13 6 7 1018.9 1018.9 0.0
23/04:30am 5.1 1.5 5.0 99 0.0 WNW 13 13 7 7 1018.9 1018.9 0.0
23/04:00am 5.3 2.1 5.2 99 0.0 WNW 11 13 6 7 1019.0 1019.0 0.0
23/03:30am 4.9 1.6 4.8 99 0.0 W 11 13 6 7 1019.2 1019.2 0.0
23/03:00am 5.0 2.1 4.9 99 0.0 WNW 9 11 5 6 1019.6 1019.6 0.0
23/02:30am 5.6 2.9 5.5 99 0.0 WNW 9 13 5 7 1019.9 1019.9 0.0
23/02:00am 5.0 2.1 4.9 99 0.0 WSW 9 11 5 6 1020.0 1020.0 0.0
23/01:30am 4.9 2.0 4.6 98 0.1 W 9 11 5 6 1020.4 1020.4 0.0
23/01:00am 5.8 2.7 5.5 98 0.1 W 11 13 6 7 1020.5 1020.5 0.0
23/12:30am 5.1 2.2 4.4 95 0.3 W 9 13 5 7 1020.6 1020.6 0.0
23/12:00am 7.1 4.6 6.7 97 0.2 W 9 11 5 6 1020.7 1020.7 0.0
 
Date/Time
EST
Temp
°C
App
Temp
°C
Dew
Point
°C
Rel
Hum
%
Delta-T
°C
Wind Press
QNH
hPa
Press
MSL
hPa
Rain since
9am
mm
Dir  Spd
km/h
Gust
km/h
Spd
kts
Gust
kts
22/11:30pm 5.8 2.6 5.2 96 0.3 W 11 13 6 7 1021.2 1021.2 0.0
22/11:00pm 6.6 4.0 5.9 95 0.3 WSW 9 9 5 5 1021.1 1021.1 0.0
22/10:30pm 7.8 5.7 6.6 92 0.6 W 7 9 4 5 1021.4 1021.4 0.0
22/10:00pm 8.9 7.0 7.4 90 0.7 WSW 7 9 4 5 1021.6 1021.6 0.0
22/09:30pm 9.2 8.1 6.8 85 1.1 WSW 2 6 1 3 1021.7 1021.7 0.0
22/09:00pm 11.3 10.7 7.2 76 2.0 CALM 0 0 0 0 1021.7 1021.7 0.0

Other formats

Comma delimited format used in spreadsheet applications
http://www.bom.gov.au/fwo/IDT60801/IDT60801.95957.axf

JavaScript Object Notation format (JSON) in row-major order
http://www.bom.gov.au/fwo/IDT60801/IDT60801.95957.json

Data quality

Most of these data are generated automatically and are frequently updated. Quality checks on data are not normally performed. It is possible for incorrect values to appear. Refer to information at About Latest Weather Observations and please check the disclaimer before using these data.